OAL202 EDDF-LGAV
Flight info
| Callsign | OAL202 |
|---|---|
| Flight time | N/A |
| Altitude | 37000 |
| Route | CINDY8S/18 CINDY Z74 LAMPU DCT NOMBO Y161 MAH L173 OTT M867 RADIZ DCT NEMEK DCT GLOMY DCT INLOT DCT PINDO UL607 XORKI |
| Aircraft | A319/M-SDE3FGHIRWY/LB1 |
Departure
| Time | N/A |
|---|---|
| Airport | Frankfurt Main Airport (EDDF) |
Arrival
| Time | 2026-05-03 21:32 |
|---|---|
| Airport | Athens Eleftherios Venizelos International Airport (LGAV) |
| Time | Latitude | Longitude | Altitude | Speed | Heading |
|---|---|---|---|---|---|
| 2026-05-03 20:15 | 44.79448 | 16.24062 | 37118 ft | 469 kts | 139° |
| 2026-05-03 20:15 | 44.74447 | 16.29991 | 37120 ft | 470 kts | 139° |
| 2026-05-03 20:16 | 44.69445 | 16.35907 | 37118 ft | 470 kts | 138° |
| 2026-05-03 20:16 | 44.64425 | 16.41808 | 37122 ft | 471 kts | 138° |
| 2026-05-03 20:17 | 44.59402 | 16.47716 | 37125 ft | 471 kts | 138° |
| 2026-05-03 20:17 | 44.54370 | 16.53622 | 37123 ft | 472 kts | 138° |
| 2026-05-03 20:18 | 44.49361 | 16.59490 | 37125 ft | 472 kts | 138° |
| 2026-05-03 20:18 | 44.44312 | 16.65392 | 37119 ft | 473 kts | 138° |
| 2026-05-03 20:19 | 44.39252 | 16.71283 | 37111 ft | 473 kts | 138° |
| 2026-05-03 20:19 | 44.34180 | 16.77175 | 37113 ft | 474 kts | 138° |
| 2026-05-03 20:20 | 44.29107 | 16.83063 | 37113 ft | 475 kts | 138° |
| 2026-05-03 20:20 | 44.24026 | 16.88951 | 37122 ft | 475 kts | 137° |
| 2026-05-03 20:21 | 44.18931 | 16.94827 | 37119 ft | 475 kts | 137° |
| 2026-05-03 20:21 | 44.13823 | 17.00700 | 37131 ft | 476 kts | 138° |
| 2026-05-03 20:22 | 44.08707 | 17.06562 | 37138 ft | 477 kts | 137° |
| 2026-05-03 20:22 | 44.03591 | 17.12428 | 37146 ft | 477 kts | 137° |
| 2026-05-03 20:23 | 43.98466 | 17.18293 | 37148 ft | 477 kts | 137° |
| 2026-05-03 20:23 | 43.93333 | 17.24159 | 37150 ft | 478 kts | 137° |
| 2026-05-03 20:24 | 43.88199 | 17.30027 | 37153 ft | 478 kts | 137° |
| 2026-05-03 20:24 | 43.83085 | 17.35832 | 37145 ft | 478 kts | 137° |
| 2026-05-03 20:25 | 43.77927 | 17.41657 | 37145 ft | 479 kts | 137° |
| 2026-05-03 20:25 | 43.72768 | 17.47497 | 37144 ft | 479 kts | 137° |
| 2026-05-03 20:26 | 43.67609 | 17.53331 | 37139 ft | 479 kts | 137° |
| 2026-05-03 20:26 | 43.62439 | 17.59137 | 37126 ft | 479 kts | 138° |
| 2026-05-03 20:27 | 43.57254 | 17.64947 | 37120 ft | 479 kts | 138° |
| 2026-05-03 20:27 | 43.52110 | 17.70792 | 37110 ft | 480 kts | 136° |
| 2026-05-03 20:28 | 43.47044 | 17.76770 | 37111 ft | 479 kts | 136° |
| 2026-05-03 20:28 | 43.41992 | 17.82749 | 37111 ft | 479 kts | 136° |
| 2026-05-03 20:29 | 43.36936 | 17.88646 | 37115 ft | 479 kts | 136° |
| 2026-05-03 20:29 | 43.31833 | 17.94547 | 37109 ft | 479 kts | 137° |
| 2026-05-03 20:30 | 43.26720 | 18.00445 | 37113 ft | 479 kts | 136° |
| 2026-05-03 20:30 | 43.21619 | 18.06345 | 37114 ft | 480 kts | 136° |
| 2026-05-03 20:31 | 43.16517 | 18.12252 | 37122 ft | 480 kts | 136° |
| 2026-05-03 20:31 | 43.11402 | 18.18141 | 37125 ft | 480 kts | 137° |
| 2026-05-03 20:32 | 43.06319 | 18.23969 | 37131 ft | 480 kts | 137° |
| 2026-05-03 20:32 | 43.01190 | 18.29829 | 37140 ft | 480 kts | 137° |
| 2026-05-03 20:33 | 42.96060 | 18.35682 | 37142 ft | 480 kts | 137° |
| 2026-05-03 20:33 | 42.90930 | 18.41529 | 37140 ft | 480 kts | 137° |
| 2026-05-03 20:34 | 42.85803 | 18.47362 | 37137 ft | 480 kts | 137° |
| 2026-05-03 20:34 | 42.80673 | 18.53190 | 37133 ft | 480 kts | 137° |
| 2026-05-03 20:35 | 42.75534 | 18.59011 | 37134 ft | 480 kts | 137° |
| 2026-05-03 20:35 | 42.70395 | 18.64815 | 37136 ft | 480 kts | 137° |
| 2026-05-03 20:36 | 42.65251 | 18.70614 | 37134 ft | 480 kts | 137° |
| 2026-05-03 20:36 | 42.60100 | 18.76410 | 37137 ft | 481 kts | 137° |
| 2026-05-03 20:37 | 42.54947 | 18.82193 | 37132 ft | 481 kts | 137° |
| 2026-05-03 20:37 | 42.49788 | 18.87974 | 37134 ft | 481 kts | 137° |
| 2026-05-03 20:38 | 42.44625 | 18.93739 | 37133 ft | 481 kts | 137° |
| 2026-05-03 20:38 | 42.39460 | 18.99496 | 37130 ft | 481 kts | 137° |
| 2026-05-03 20:39 | 42.34322 | 19.05219 | 37130 ft | 481 kts | 137° |
| 2026-05-03 20:39 | 42.29144 | 19.10963 | 37125 ft | 482 kts | 137° |
| 2026-05-03 20:40 | 42.23958 | 19.16699 | 37128 ft | 482 kts | 137° |
| 2026-05-03 20:40 | 42.18761 | 19.22450 | 37122 ft | 483 kts | 137° |
| 2026-05-03 20:41 | 42.13562 | 19.28193 | 37117 ft | 483 kts | 137° |
| 2026-05-03 20:41 | 42.08351 | 19.33926 | 37122 ft | 484 kts | 137° |
| 2026-05-03 20:42 | 42.03138 | 19.39653 | 37116 ft | 484 kts | 137° |
| 2026-05-03 20:42 | 41.97915 | 19.45375 | 37115 ft | 484 kts | 137° |
| 2026-05-03 20:43 | 41.92608 | 19.50981 | 37120 ft | 486 kts | 139° |
| 2026-05-03 20:43 | 41.88121 | 19.55536 | 37119 ft | 486 kts | 139° |
| 2026-05-03 20:44 | 41.82719 | 19.61000 | 37121 ft | 486 kts | 139° |
| 2026-05-03 20:44 | 41.77335 | 19.66502 | 37124 ft | 486 kts | 139° |
| 2026-05-03 20:45 | 41.71963 | 19.72018 | 37134 ft | 487 kts | 139° |
| 2026-05-03 20:45 | 41.66582 | 19.77524 | 37136 ft | 487 kts | 139° |
| 2026-05-03 20:46 | 41.61188 | 19.83024 | 37140 ft | 487 kts | 139° |
| 2026-05-03 20:46 | 41.55825 | 19.88469 | 37147 ft | 488 kts | 139° |
| 2026-05-03 20:47 | 41.50419 | 19.93953 | 37145 ft | 488 kts | 139° |
| 2026-05-03 20:47 | 41.45001 | 19.99434 | 37146 ft | 488 kts | 139° |
| 2026-05-03 20:48 | 41.39578 | 20.04908 | 37148 ft | 489 kts | 139° |
| 2026-05-03 20:48 | 41.34155 | 20.10371 | 37152 ft | 489 kts | 139° |
| 2026-05-03 20:49 | 41.28726 | 20.15831 | 37157 ft | 489 kts | 139° |
| 2026-05-03 20:49 | 41.23293 | 20.21288 | 37158 ft | 490 kts | 139° |
| 2026-05-03 20:50 | 41.17858 | 20.26734 | 37157 ft | 489 kts | 139° |
| 2026-05-03 20:50 | 41.12445 | 20.32143 | 37165 ft | 490 kts | 139° |
| 2026-05-03 20:51 | 41.06989 | 20.37583 | 37164 ft | 490 kts | 139° |
| 2026-05-03 20:51 | 41.01535 | 20.43009 | 37167 ft | 490 kts | 139° |
| 2026-05-03 20:52 | 40.96077 | 20.48430 | 37166 ft | 491 kts | 140° |
| 2026-05-03 20:52 | 40.90605 | 20.53851 | 37169 ft | 491 kts | 140° |
| 2026-05-03 20:53 | 40.85131 | 20.59260 | 37170 ft | 491 kts | 140° |
| 2026-05-03 20:53 | 40.79651 | 20.64672 | 37167 ft | 491 kts | 140° |
| 2026-05-03 20:54 | 40.74166 | 20.70061 | 37172 ft | 492 kts | 140° |
| 2026-05-03 20:54 | 40.65913 | 20.78157 | 37177 ft | 493 kts | 140° |
| 2026-05-03 20:55 | 40.60411 | 20.83552 | 37189 ft | 493 kts | 140° |
| 2026-05-03 20:55 | 40.54942 | 20.88902 | 37190 ft | 493 kts | 140° |
| 2026-05-03 20:56 | 40.49420 | 20.94277 | 37197 ft | 494 kts | 140° |
| 2026-05-03 20:56 | 40.44047 | 20.99881 | 37199 ft | 492 kts | 135° |
| 2026-05-03 20:57 | 40.38972 | 21.05885 | 37206 ft | 491 kts | 133° |
| 2026-05-03 20:57 | 40.33926 | 21.11944 | 37205 ft | 492 kts | 134° |
| 2026-05-03 20:58 | 40.28796 | 21.17893 | 37211 ft | 492 kts | 135° |
| 2026-05-03 20:58 | 40.23619 | 21.23775 | 37215 ft | 493 kts | 135° |
| 2026-05-03 20:59 | 40.18441 | 21.29655 | 37223 ft | 493 kts | 135° |
| 2026-05-03 20:59 | 40.13276 | 21.35543 | 37224 ft | 493 kts | 135° |
| 2026-05-03 21:00 | 40.08988 | 21.40443 | 37221 ft | 493 kts | 135° |
| 2026-05-03 21:00 | 40.02947 | 21.47327 | 37218 ft | 493 kts | 135° |
| 2026-05-03 21:01 | 39.97802 | 21.53162 | 37220 ft | 493 kts | 135° |
| 2026-05-03 21:01 | 39.92613 | 21.59028 | 37221 ft | 494 kts | 135° |
| 2026-05-03 21:02 | 39.87423 | 21.64893 | 37223 ft | 494 kts | 135° |
| 2026-05-03 21:02 | 39.82225 | 21.70754 | 37211 ft | 494 kts | 135° |
| 2026-05-03 21:03 | 39.77080 | 21.76538 | 37201 ft | 495 kts | 136° |
| 2026-05-03 21:03 | 39.71814 | 21.82436 | 37204 ft | 495 kts | 136° |
| 2026-05-03 21:04 | 39.66595 | 21.88283 | 37194 ft | 496 kts | 136° |
| 2026-05-03 21:04 | 39.61370 | 21.94123 | 37194 ft | 496 kts | 136° |
| 2026-05-03 21:05 | 39.56139 | 21.99950 | 37200 ft | 496 kts | 136° |
| 2026-05-03 21:05 | 39.50908 | 22.05775 | 37212 ft | 496 kts | 136° |
| 2026-05-03 21:06 | 39.45707 | 22.11554 | 37199 ft | 496 kts | 136° |
| 2026-05-03 21:06 | 39.40465 | 22.17371 | 37199 ft | 496 kts | 136° |
| 2026-05-03 21:07 | 39.35224 | 22.23175 | 37205 ft | 496 kts | 136° |
| 2026-05-03 21:07 | 39.29976 | 22.28961 | 37215 ft | 496 kts | 137° |
| 2026-05-03 21:08 | 39.24729 | 22.34733 | 37219 ft | 495 kts | 137° |
| 2026-05-03 21:08 | 39.19485 | 22.40504 | 37212 ft | 495 kts | 137° |
| 2026-05-03 21:09 | 39.14252 | 22.46251 | 37209 ft | 494 kts | 137° |
| 2026-05-03 21:09 | 39.09006 | 22.51997 | 36955 ft | 495 kts | 137° |
| 2026-05-03 21:10 | 39.06384 | 22.54864 | 36578 ft | 495 kts | 137° |
| 2026-05-03 21:10 | 39.03755 | 22.57736 | 36205 ft | 496 kts | 137° |
| 2026-05-03 21:10 | 39.01128 | 22.60602 | 35844 ft | 497 kts | 137° |
| 2026-05-03 21:10 | 38.98490 | 22.63475 | 35489 ft | 499 kts | 137° |
| 2026-05-03 21:11 | 38.95836 | 22.66363 | 35139 ft | 501 kts | 137° |
| 2026-05-03 21:11 | 38.93173 | 22.69259 | 34789 ft | 503 kts | 137° |
| 2026-05-03 21:11 | 38.90489 | 22.72176 | 33816 ft | 510 kts | 137° |
| 2026-05-03 21:11 | 38.87758 | 22.75143 | 32313 ft | 519 kts | 136° |
| 2026-05-03 21:12 | 38.84992 | 22.78138 | 31609 ft | 514 kts | 136° |
| 2026-05-03 21:12 | 38.82281 | 22.81061 | 31118 ft | 507 kts | 136° |
| 2026-05-03 21:12 | 38.79622 | 22.83932 | 30466 ft | 504 kts | 136° |
| 2026-05-03 21:12 | 38.76963 | 22.86811 | 29771 ft | 497 kts | 136° |
| 2026-05-03 21:13 | 38.74347 | 22.89644 | 29165 ft | 488 kts | 136° |
| 2026-05-03 21:13 | 38.71773 | 22.92427 | 28540 ft | 480 kts | 136° |
| 2026-05-03 21:13 | 38.69237 | 22.95163 | 27939 ft | 472 kts | 136° |
| 2026-05-03 21:13 | 38.66743 | 22.97851 | 27343 ft | 465 kts | 136° |
| 2026-05-03 21:14 | 38.64291 | 23.00492 | 26758 ft | 457 kts | 137° |
| 2026-05-03 21:14 | 38.61872 | 23.03093 | 26186 ft | 450 kts | 137° |
| 2026-05-03 21:14 | 38.59487 | 23.05648 | 25630 ft | 444 kts | 137° |
| 2026-05-03 21:14 | 38.57138 | 23.08158 | 25101 ft | 437 kts | 137° |
| 2026-05-03 21:15 | 38.54824 | 23.10636 | 24584 ft | 433 kts | 137° |
| 2026-05-03 21:15 | 38.52524 | 23.13102 | 24081 ft | 431 kts | 137° |
| 2026-05-03 21:15 | 38.50233 | 23.15560 | 23549 ft | 429 kts | 137° |
| 2026-05-03 21:15 | 38.47962 | 23.17993 | 23047 ft | 424 kts | 137° |
| 2026-05-03 21:16 | 38.45712 | 23.20400 | 22571 ft | 421 kts | 137° |
| 2026-05-03 21:16 | 38.43477 | 23.22782 | 22086 ft | 417 kts | 137° |
| 2026-05-03 21:16 | 38.41255 | 23.25147 | 21594 ft | 413 kts | 137° |
| 2026-05-03 21:16 | 38.39058 | 23.27485 | 21097 ft | 411 kts | 138° |
| 2026-05-03 21:17 | 38.36872 | 23.29812 | 20598 ft | 408 kts | 138° |
| 2026-05-03 21:17 | 38.35435 | 23.31343 | 20255 ft | 406 kts | 138° |
| 2026-05-03 21:17 | 38.32550 | 23.34414 | 19559 ft | 403 kts | 138° |
| 2026-05-03 21:17 | 38.30405 | 23.36692 | 19032 ft | 401 kts | 138° |
| 2026-05-03 21:18 | 38.28297 | 23.38930 | 18497 ft | 398 kts | 138° |
| 2026-05-03 21:18 | 38.26172 | 23.41181 | 17916 ft | 396 kts | 138° |
| 2026-05-03 21:18 | 38.24068 | 23.43408 | 17388 ft | 391 kts | 138° |
| 2026-05-03 21:18 | 38.21988 | 23.45610 | 16855 ft | 388 kts | 138° |
| 2026-05-03 21:19 | 38.19859 | 23.47691 | 16325 ft | 385 kts | 147° |
| 2026-05-03 21:19 | 38.17456 | 23.49157 | 15845 ft | 382 kts | 161° |
| 2026-05-03 21:19 | 38.14883 | 23.49904 | 15343 ft | 378 kts | 174° |
| 2026-05-03 21:19 | 38.12274 | 23.49923 | 14844 ft | 373 kts | 188° |
| 2026-05-03 21:20 | 38.09722 | 23.49419 | 14352 ft | 370 kts | 191° |
| 2026-05-03 21:20 | 38.07188 | 23.48894 | 13850 ft | 368 kts | 191° |
| 2026-05-03 21:20 | 38.04672 | 23.48377 | 13336 ft | 364 kts | 191° |
| 2026-05-03 21:20 | 38.02182 | 23.47867 | 12849 ft | 360 kts | 191° |
| 2026-05-03 21:21 | 37.99756 | 23.47371 | 12379 ft | 356 kts | 191° |
| 2026-05-03 21:21 | 37.97321 | 23.46875 | 11911 ft | 352 kts | 191° |
| 2026-05-03 21:21 | 37.94910 | 23.46382 | 11413 ft | 350 kts | 191° |
| 2026-05-03 21:21 | 37.92519 | 23.45892 | 10910 ft | 347 kts | 191° |
| 2026-05-03 21:22 | 37.90145 | 23.45406 | 10417 ft | 342 kts | 191° |
| 2026-05-03 21:22 | 37.87855 | 23.44938 | 10266 ft | 324 kts | 191° |
| 2026-05-03 21:22 | 37.85682 | 23.44496 | 10053 ft | 307 kts | 191° |
| 2026-05-03 21:22 | 37.83599 | 23.44069 | 9663 ft | 299 kts | 191° |
| 2026-05-03 21:23 | 37.81520 | 23.43997 | 9466 ft | 302 kts | 172° |
| 2026-05-03 21:23 | 37.79544 | 23.44929 | 8969 ft | 305 kts | 145° |
| 2026-05-03 21:23 | 37.78038 | 23.46738 | 8626 ft | 297 kts | 122° |
| 2026-05-03 21:23 | 37.77185 | 23.49068 | 8263 ft | 290 kts | 99° |
| 2026-05-03 21:24 | 37.77050 | 23.51561 | 7931 ft | 282 kts | 82° |
| 2026-05-03 21:24 | 37.77174 | 23.54020 | 7663 ft | 277 kts | 82° |
| 2026-05-03 21:24 | 37.77289 | 23.56427 | 7210 ft | 272 kts | 82° |
| 2026-05-03 21:24 | 37.77403 | 23.58808 | 6732 ft | 269 kts | 82° |
| 2026-05-03 21:25 | 37.77516 | 23.61150 | 6233 ft | 265 kts | 82° |
| 2026-05-03 21:25 | 37.77625 | 23.63464 | 5708 ft | 263 kts | 82° |
| 2026-05-03 21:25 | 37.77729 | 23.65727 | 5472 ft | 249 kts | 81° |
| 2026-05-03 21:25 | 37.77822 | 23.67846 | 5344 ft | 234 kts | 81° |
| 2026-05-03 21:26 | 37.77908 | 23.69812 | 5122 ft | 215 kts | 81° |
| 2026-05-03 21:26 | 37.77987 | 23.71598 | 4882 ft | 195 kts | 80° |
| 2026-05-03 21:26 | 37.78066 | 23.73277 | 4402 ft | 189 kts | 79° |
| 2026-05-03 21:26 | 37.78147 | 23.74942 | 3930 ft | 190 kts | 79° |
| 2026-05-03 21:27 | 37.78228 | 23.76601 | 3511 ft | 189 kts | 79° |
| 2026-05-03 21:27 | 37.78485 | 23.78186 | 3064 ft | 180 kts | 60° |
| 2026-05-03 21:27 | 37.79148 | 23.79468 | 3023 ft | 174 kts | 42° |
| 2026-05-03 21:27 | 37.80072 | 23.80433 | 3017 ft | 173 kts | 33° |
| 2026-05-03 21:28 | 37.80994 | 23.81308 | 2995 ft | 158 kts | 33° |
| 2026-05-03 21:28 | 37.81846 | 23.82116 | 2873 ft | 150 kts | 32° |
| 2026-05-03 21:28 | 37.82653 | 23.82881 | 2710 ft | 142 kts | 31° |
| 2026-05-03 21:28 | 37.83437 | 23.83622 | 2592 ft | 140 kts | 32° |
| 2026-05-03 21:29 | 37.84223 | 23.84366 | 2353 ft | 140 kts | 32° |
| 2026-05-03 21:29 | 37.84997 | 23.85100 | 2153 ft | 135 kts | 32° |
| 2026-05-03 21:29 | 37.85737 | 23.85802 | 1978 ft | 131 kts | 33° |
| 2026-05-03 21:29 | 37.86468 | 23.86494 | 1794 ft | 131 kts | 33° |
| 2026-05-03 21:30 | 37.86950 | 23.86951 | 1680 ft | 131 kts | 33° |
| 2026-05-03 21:30 | 37.87685 | 23.87647 | 1499 ft | 132 kts | 33° |
| 2026-05-03 21:30 | 37.88426 | 23.88350 | 1311 ft | 133 kts | 33° |
| 2026-05-03 21:30 | 37.89169 | 23.89055 | 1108 ft | 135 kts | 32° |
| 2026-05-03 21:31 | 37.89930 | 23.89777 | 910 ft | 139 kts | 33° |
| 2026-05-03 21:31 | 37.90713 | 23.90520 | 705 ft | 141 kts | 32° |
| 2026-05-03 21:31 | 37.91500 | 23.91268 | 530 ft | 142 kts | 32° |
| 2026-05-03 21:31 | 37.92289 | 23.92017 | 347 ft | 141 kts | 32° |
| 2026-05-03 21:32 | 37.93002 | 23.92679 | 294 ft | 98 kts | 38° |
| 2026-05-03 21:32 | 37.93330 | 23.93005 | 292 ft | 42 kts | 38° |
| 2026-05-03 21:32 | 37.93548 | 23.93254 | 290 ft | 42 kts | 51° |
| 2026-05-03 21:32 | 37.93608 | 23.93398 | 297 ft | 5 kts | 64° |
| 2026-05-03 21:33 | 37.93616 | 23.93420 | 297 ft | 1 kts | 65° |
| 2026-05-03 21:33 | 37.93620 | 23.93430 | 296 ft | 2 kts | 65° |
| 2026-05-03 21:33 | 37.93635 | 23.93471 | 298 ft | 9 kts | 66° |
| 2026-05-03 21:33 | 37.93666 | 23.93561 | 299 ft | 12 kts | 66° |
| 2026-05-03 21:34 | 37.93719 | 23.93652 | 299 ft | 14 kts | 43° |
| 2026-05-03 21:34 | 37.93802 | 23.93734 | 301 ft | 17 kts | 36° |
| 2026-05-03 21:34 | 37.93904 | 23.93832 | 299 ft | 20 kts | 37° |
| 2026-05-03 21:34 | 37.94030 | 23.93954 | 300 ft | 25 kts | 37° |
| 2026-05-03 21:35 | 37.94183 | 23.94099 | 302 ft | 27 kts | 37° |
| 2026-05-03 21:35 | 37.94323 | 23.94231 | 302 ft | 25 kts | 37° |
| 2026-05-03 21:35 | 37.94475 | 23.94376 | 302 ft | 25 kts | 36° |
| 2026-05-03 21:35 | 37.94620 | 23.94513 | 302 ft | 25 kts | 37° |
| 2026-05-03 21:36 | 37.94642 | 23.94700 | 303 ft | 28 kts | 128° |
| 2026-05-03 21:36 | 37.94529 | 23.94884 | 302 ft | 29 kts | 126° |
| 2026-05-03 21:36 | 37.94409 | 23.95092 | 301 ft | 29 kts | 127° |
| 2026-05-03 21:36 | 37.94279 | 23.95312 | 302 ft | 34 kts | 127° |
| 2026-05-03 21:37 | 37.94186 | 23.95468 | 300 ft | 17 kts | 127° |
| 2026-05-03 21:37 | 37.94083 | 23.95545 | 299 ft | 21 kts | 201° |
| 2026-05-03 21:37 | 37.93950 | 23.95423 | 301 ft | 23 kts | 216° |
| 2026-05-03 21:37 | 37.93868 | 23.95258 | 302 ft | 22 kts | 249° |
| 2026-05-03 21:38 | 37.93762 | 23.95115 | 300 ft | 20 kts | 218° |
| 2026-05-03 21:38 | 37.93645 | 23.95004 | 301 ft | 21 kts | 217° |
| 2026-05-03 21:38 | 37.93622 | 23.94924 | 302 ft | 11 kts | 313° |
| 2026-05-03 21:38 | 37.93645 | 23.94894 | 301 ft | 0 kts | 307° |
| 2026-05-03 21:39 | 37.93652 | 23.94884 | 301 ft | 1 kts | 307° |
| 2026-05-03 21:39 | 37.93656 | 23.94876 | 301 ft | 0 kts | 307° |